KBCE/BCE METAR and TAF weather

Enter ICAO airport designator
Station Type Date Time Source
KBCE METAR 2021/04/14 19:53 UTC NOAA

KBCE 141953Z AUTO 21020G30KT 10SM FEW090 12/M13 A2982 RMK AO2 PK WND 22032/1939 SLP016 T01171133


Station Type Date Time Source
KBCE Decoded METAR 2021/04/14 19:53 UTC NOAA

BRYCE CANYON AIRPORT, UT, United States (KBCE) 37-42N 112-09W 2312M
Apr 14, 2021 - 03:53 PM EDT / 2021.04.14 1953 UTC
Wind: from the SSW (210 degrees) at 23 MPH (20 KT) gusting to 35 MPH (30 KT):0
Visibility: 10 mile(s):0
Sky conditions: mostly clear
Temperature: 53.1 F (11.7 C)
Dew Point: 8.1 F (-13.3 C)
Relative Humidity: 15%
Pressure (altimeter): 29.82 in. Hg (1009 hPa)
ob: KBCE 141953Z AUTO 21020G30KT 10SM FEW090 12/M13 A2982 RMK AO2 PK WND 22032/1939 SLP016 T01171133
cycle: 20

Station Type Date Time Source
KBCE TAF 2021/04/14 18:42 UTC NOAA

TAF KBCE 141740Z 1418/1518 22022G35KT P6SM FEW060 SCT080
FM150300 27009KT P6SM BKN080

Example: see airport list